createdAt,value
2022-10-31T00:01:40.775Z,8.10
2022-10-31T00:04:07.507Z,8.10
2022-10-31T00:06:34.661Z,8.00
2022-10-31T00:09:03.347Z,7.90
2022-10-31T00:11:30.633Z,7.90
2022-10-31T00:14:00.717Z,7.90
2022-10-31T00:16:27.942Z,7.90
2022-10-31T00:18:57.376Z,7.90
2022-10-31T00:21:24.873Z,7.90
2022-10-31T00:23:51.669Z,7.90
2022-10-31T00:26:18.833Z,7.90
2022-10-31T00:28:45.782Z,7.90
2022-10-31T00:31:13.986Z,7.90
2022-10-31T00:33:41.818Z,7.90
2022-10-31T00:36:12.972Z,7.80
2022-10-31T00:38:40.016Z,7.70
2022-10-31T00:41:06.784Z,7.80
2022-10-31T00:43:33.691Z,7.80
2022-10-31T00:46:00.453Z,7.80
2022-10-31T00:48:27.230Z,7.80
2022-10-31T00:50:54.032Z,7.80
2022-10-31T00:53:20.821Z,7.70
2022-10-31T00:55:47.641Z,7.70
2022-10-31T01:00:55.677Z,7.60
2022-10-31T01:03:24.244Z,7.60
2022-10-31T01:06:12.522Z,7.50
2022-10-31T01:08:39.920Z,7.50
2022-10-31T01:11:09.057Z,7.40
2022-10-31T01:13:36.330Z,7.40
2022-10-31T01:16:04.804Z,7.40
2022-10-31T01:18:32.081Z,7.40
2022-10-31T01:21:06.031Z,7.40
2022-10-31T01:23:33.400Z,7.40
2022-10-31T01:26:09.922Z,7.40
2022-10-31T01:28:38.609Z,7.40
2022-10-31T01:31:08.194Z,7.40
2022-10-31T01:33:36.820Z,7.40
2022-10-31T01:36:16.669Z,7.30
2022-10-31T01:38:43.654Z,7.30
2022-10-31T01:41:12.721Z,7.30
2022-10-31T01:44:22.284Z,7.30
2022-10-31T01:46:56.059Z,7.30
2022-10-31T01:49:46.856Z,7.30
2022-10-31T01:52:31.733Z,7.30
2022-10-31T01:55:10.081Z,7.30
2022-10-31T01:57:38.973Z,7.30
2022-10-31T02:00:09.990Z,7.20
2022-10-31T02:02:37.307Z,7.20
2022-10-31T02:05:09.127Z,7.10
2022-10-31T02:07:54.176Z,7.10
2022-10-31T02:10:23.125Z,7.00
2022-10-31T02:12:53.168Z,7.00
2022-10-31T02:15:20.577Z,6.90
2022-10-31T02:17:47.857Z,6.90
2022-10-31T02:20:26.382Z,7.00
2022-10-31T02:23:10.058Z,7.00
2022-10-31T02:26:06.914Z,7.00
2022-10-31T02:28:52.158Z,7.10
2022-10-31T02:31:47.438Z,6.90
2022-10-31T02:34:31.132Z,6.80
2022-10-31T02:37:15.214Z,6.80
2022-10-31T02:39:53.590Z,6.80
2022-10-31T02:42:39.242Z,6.90
2022-10-31T02:45:26.529Z,7.00
2022-10-31T02:47:59.687Z,6.90
2022-10-31T02:50:34.348Z,6.80
2022-10-31T02:53:01.996Z,6.90
2022-10-31T02:55:29.285Z,6.90
2022-10-31T02:58:08.370Z,6.80
2022-10-31T03:00:47.015Z,6.70
2022-10-31T03:03:26.174Z,6.70
2022-10-31T03:06:33.340Z,6.80
2022-10-31T03:09:34.578Z,6.80
2022-10-31T03:12:34.182Z,6.80
2022-10-31T03:15:26.188Z,6.80
2022-10-31T03:17:59.740Z,6.80
2022-10-31T03:20:52.978Z,6.80
2022-10-31T03:23:22.778Z,6.80
2022-10-31T03:25:50.496Z,6.80
2022-10-31T03:28:23.026Z,6.80
2022-10-31T03:30:51.996Z,6.90
2022-10-31T03:33:25.585Z,6.90
2022-10-31T03:35:56.444Z,6.90
2022-10-31T03:38:23.749Z,6.90
2022-10-31T03:40:53.947Z,6.90
2022-10-31T03:43:27.626Z,6.80
2022-10-31T03:45:54.554Z,6.80
2022-10-31T03:48:22.695Z,6.80
2022-10-31T03:51:11.606Z,6.80
2022-10-31T03:53:46.563Z,6.80
2022-10-31T03:56:42.706Z,6.80
2022-10-31T03:59:15.557Z,6.90
2022-10-31T04:01:48.308Z,6.80
2022-10-31T04:04:15.918Z,6.90
2022-10-31T04:06:48.118Z,7.00
2022-10-31T04:09:16.066Z,7.10
2022-10-31T04:11:47.430Z,7.10
2022-10-31T04:14:14.166Z,7.10
2022-10-31T04:16:44.690Z,7.10
2022-10-31T04:19:13.068Z,7.10
2022-10-31T04:21:39.821Z,7.10
2022-10-31T04:24:06.917Z,7.10
2022-10-31T04:26:33.641Z,7.10
2022-10-31T04:29:00.354Z,7.10
2022-10-31T04:31:27.282Z,7.10
2022-10-31T04:33:54.065Z,7.10
2022-10-31T04:36:21.137Z,7.00
2022-10-31T04:38:48.073Z,7.00
2022-10-31T04:41:14.814Z,7.00
2022-10-31T04:43:41.559Z,7.10
2022-10-31T04:46:08.452Z,7.10
2022-10-31T04:48:35.250Z,7.10
2022-10-31T04:51:02.810Z,7.10
2022-10-31T04:53:30.184Z,7.10
2022-10-31T04:55:59.920Z,7.00
2022-10-31T04:58:26.720Z,7.00
2022-10-31T05:00:57.255Z,7.10
2022-10-31T05:03:24.158Z,7.20
2022-10-31T05:05:50.995Z,7.10
2022-10-31T05:08:17.869Z,7.10
2022-10-31T05:10:44.693Z,7.00
2022-10-31T05:13:11.730Z,7.00
2022-10-31T05:15:38.907Z,6.90
2022-10-31T05:18:05.775Z,6.90
2022-10-31T05:20:32.713Z,6.90
2022-10-31T05:23:00.966Z,6.90
2022-10-31T05:25:29.538Z,6.90
2022-10-31T05:27:57.603Z,6.90
2022-10-31T05:30:30.682Z,6.90
2022-10-31T05:32:57.947Z,6.90
2022-10-31T05:35:27.846Z,6.90
2022-10-31T05:37:54.768Z,6.90
2022-10-31T05:40:22.693Z,6.90
2022-10-31T05:42:52.758Z,7.00
2022-10-31T05:45:20.778Z,7.00
2022-10-31T05:47:59.882Z,7.00
2022-10-31T05:50:29.221Z,7.00
2022-10-31T05:53:06.415Z,6.90
2022-10-31T05:55:33.901Z,6.90
2022-10-31T05:58:01.504Z,6.80
2022-10-31T06:00:29.590Z,6.80
2022-10-31T06:03:05.391Z,6.80
2022-10-31T06:05:32.646Z,6.80
2022-10-31T06:08:00.077Z,6.90
2022-10-31T06:10:27.289Z,6.90
2022-10-31T06:12:54.063Z,6.80
2022-10-31T06:15:24.177Z,6.80
2022-10-31T06:18:03.551Z,6.80
2022-10-31T06:20:30.902Z,6.80
2022-10-31T06:22:57.946Z,6.80
2022-10-31T06:25:25.234Z,6.80
2022-10-31T06:27:51.981Z,6.80
2022-10-31T06:30:18.757Z,6.80
2022-10-31T06:32:45.553Z,6.80
2022-10-31T06:35:12.303Z,6.70
2022-10-31T06:37:39.098Z,6.80
2022-10-31T06:40:06.798Z,6.80
2022-10-31T06:42:33.589Z,6.80
2022-10-31T06:45:00.381Z,6.80
2022-10-31T06:47:27.132Z,6.80
2022-10-31T06:49:53.849Z,6.80
2022-10-31T06:52:20.582Z,6.90
2022-10-31T06:54:47.318Z,7.00
2022-10-31T06:57:14.043Z,7.00
2022-10-31T06:59:40.808Z,7.10
2022-10-31T07:02:11.409Z,7.10
2022-10-31T07:04:38.383Z,7.10
2022-10-31T07:07:05.457Z,7.00
2022-10-31T07:09:32.212Z,6.90
2022-10-31T07:11:58.958Z,6.90
2022-10-31T07:14:25.707Z,7.00
2022-10-31T07:16:52.673Z,7.10
2022-10-31T07:19:19.411Z,7.20
2022-10-31T07:21:46.157Z,7.20
2022-10-31T07:24:12.917Z,7.30
2022-10-31T07:26:39.801Z,7.30
2022-10-31T07:29:06.541Z,7.40
2022-10-31T07:31:33.316Z,7.50
2022-10-31T07:34:00.108Z,7.50
2022-10-31T07:36:26.860Z,7.60
2022-10-31T07:38:53.556Z,7.50
2022-10-31T07:41:20.273Z,7.50
2022-10-31T07:43:47.056Z,7.50
2022-10-31T07:46:13.840Z,7.60
2022-10-31T07:48:40.646Z,7.60
2022-10-31T07:51:07.943Z,7.60
2022-10-31T07:53:34.684Z,7.70
2022-10-31T07:56:01.459Z,7.70
2022-10-31T07:58:28.381Z,7.80
2022-10-31T08:00:55.351Z,8.10
2022-10-31T08:03:22.204Z,8.30
2022-10-31T08:05:48.965Z,8.40
2022-10-31T08:08:16.501Z,8.60
2022-10-31T08:10:43.408Z,8.80
2022-10-31T08:13:12.825Z,8.90
2022-10-31T08:15:42.389Z,9.10
2022-10-31T08:18:15.889Z,9.20
2022-10-31T08:20:43.492Z,9.10
2022-10-31T08:23:11.888Z,9.10
2022-10-31T08:25:39.504Z,9.10
2022-10-31T08:28:07.801Z,9.30
2022-10-31T08:30:36.993Z,9.20
2022-10-31T08:33:10.274Z,9.20
2022-10-31T08:35:37.241Z,9.10
2022-10-31T08:38:04.774Z,9.30
2022-10-31T08:40:33.852Z,9.30
2022-10-31T08:43:03.135Z,9.40
2022-10-31T08:45:32.387Z,9.50
2022-10-31T08:48:05.180Z,9.60
2022-10-31T08:50:34.652Z,9.70
2022-10-31T08:53:07.306Z,9.80
2022-10-31T08:55:38.625Z,10.00
2022-10-31T08:58:07.542Z,10.10
2022-10-31T09:00:35.662Z,10.20
2022-10-31T09:03:09.858Z,10.30
2022-10-31T09:05:37.002Z,10.40
2022-10-31T09:08:05.981Z,10.40
2022-10-31T09:10:35.110Z,10.60
2022-10-31T09:13:09.717Z,10.70
2022-10-31T09:15:39.774Z,10.70
2022-10-31T09:18:07.877Z,10.80
2022-10-31T09:20:36.382Z,10.90
2022-10-31T09:23:09.537Z,11.00
2022-10-31T09:25:36.676Z,11.10
2022-10-31T09:28:05.499Z,11.20
2022-10-31T09:30:34.474Z,11.40
2022-10-31T09:33:04.062Z,11.50
2022-10-31T09:35:31.135Z,11.60
2022-10-31T09:37:59.730Z,11.80
2022-10-31T09:40:37.181Z,11.90
2022-10-31T09:43:13.150Z,12.00
2022-10-31T09:45:45.270Z,12.20
2022-10-31T09:48:32.288Z,12.40
2022-10-31T09:51:05.498Z,12.60
2022-10-31T09:53:46.874Z,12.70
2022-10-31T09:56:20.898Z,12.90
2022-10-31T09:58:52.026Z,13.00
2022-10-31T10:01:33.808Z,13.10
2022-10-31T10:04:18.259Z,13.30
2022-10-31T10:06:52.923Z,13.40
2022-10-31T10:09:25.917Z,13.70
2022-10-31T10:12:11.469Z,13.80
2022-10-31T10:14:51.996Z,13.90
2022-10-31T10:17:33.324Z,13.90
2022-10-31T10:20:20.842Z,14.00
2022-10-31T10:23:10.926Z,14.20
2022-10-31T10:25:42.252Z,14.40
2022-10-31T10:28:23.615Z,14.60
2022-10-31T10:31:01.001Z,14.70
2022-10-31T10:33:43.702Z,14.80
2022-10-31T10:36:18.904Z,14.90
2022-10-31T10:38:56.146Z,15.00
2022-10-31T10:41:25.694Z,15.30
2022-10-31T10:43:59.749Z,15.40
2022-10-31T10:47:08.857Z,15.60
2022-10-31T10:49:52.715Z,15.80
2022-10-31T10:52:49.188Z,16.10
2022-10-31T10:55:44.181Z,16.20
2022-10-31T10:58:11.613Z,16.30
2022-10-31T11:00:48.885Z,16.40
2022-10-31T11:03:17.739Z,16.60
2022-10-31T11:05:59.876Z,16.80
2022-10-31T11:08:35.739Z,17.00
2022-10-31T11:11:04.410Z,17.30
2022-10-31T11:13:33.499Z,17.40
2022-10-31T11:16:10.888Z,17.60
2022-10-31T11:18:47.024Z,17.80
2022-10-31T11:21:40.238Z,17.90
2022-10-31T11:24:09.968Z,18.00
2022-10-31T11:26:41.191Z,18.20
2022-10-31T11:29:25.962Z,18.30
2022-10-31T11:31:56.067Z,18.40
2022-10-31T11:34:42.448Z,18.60
2022-10-31T11:37:28.029Z,18.70
2022-10-31T11:40:01.204Z,18.90
2022-10-31T11:42:29.935Z,19.20
2022-10-31T11:44:57.791Z,19.40
2022-10-31T11:47:30.943Z,19.70
2022-10-31T11:50:00.426Z,19.80
2022-10-31T11:52:30.902Z,19.80
2022-10-31T11:55:14.304Z,20.20
2022-10-31T11:57:49.594Z,20.50
2022-10-31T12:00:22.893Z,20.80
2022-10-31T12:02:50.311Z,20.80
2022-10-31T12:05:30.073Z,20.90
2022-10-31T12:08:01.913Z,21.10
2022-10-31T12:10:49.607Z,21.30
2022-10-31T12:13:38.160Z,21.80
2022-10-31T12:16:25.297Z,22.50
2022-10-31T12:19:14.588Z,22.30
2022-10-31T12:21:47.325Z,22.30
2022-10-31T12:24:33.080Z,22.10
2022-10-31T12:27:08.694Z,22.10
2022-10-31T12:29:44.657Z,21.90
2022-10-31T12:32:49.289Z,22.20
2022-10-31T12:35:43.987Z,22.60
2022-10-31T12:38:33.658Z,23.20
2022-10-31T12:41:23.726Z,23.40
2022-10-31T12:44:01.103Z,23.60
2022-10-31T12:46:41.614Z,23.40
2022-10-31T12:49:25.400Z,23.40
2022-10-31T12:52:11.459Z,23.40
2022-10-31T12:54:39.796Z,23.50
2022-10-31T12:57:37.340Z,23.60
2022-10-31T13:00:12.877Z,23.30
2022-10-31T13:02:55.385Z,23.30
2022-10-31T13:05:50.709Z,23.40
2022-10-31T13:08:23.512Z,23.60
2022-10-31T13:10:57.073Z,23.80
2022-10-31T13:13:52.726Z,23.50
2022-10-31T13:16:39.680Z,23.40
2022-10-31T13:19:27.788Z,23.30
2022-10-31T13:22:18.465Z,23.00
2022-10-31T13:25:10.020Z,23.10
2022-10-31T13:28:03.711Z,22.70
2022-10-31T13:30:34.269Z,22.80
2022-10-31T13:33:19.902Z,22.60
2022-10-31T13:35:53.312Z,22.50
2022-10-31T13:38:39.905Z,22.40
2022-10-31T13:41:52.112Z,22.50
2022-10-31T13:44:24.956Z,22.80
2022-10-31T13:46:53.051Z,22.80
2022-10-31T13:49:40.393Z,22.40
2022-10-31T13:52:14.609Z,21.90
2022-10-31T13:54:58.128Z,21.70
2022-10-31T13:57:33.944Z,20.80
2022-10-31T14:00:08.204Z,20.30
2022-10-31T14:02:37.321Z,19.90
2022-10-31T14:05:07.785Z,19.60
2022-10-31T14:07:44.770Z,19.10
2022-10-31T14:10:28.236Z,18.80
2022-10-31T14:13:21.837Z,18.50
2022-10-31T14:16:06.926Z,18.30
2022-10-31T14:18:40.338Z,18.10
2022-10-31T14:21:16.392Z,17.80
2022-10-31T14:23:45.464Z,17.70
2022-10-31T14:26:27.733Z,17.60
2022-10-31T14:28:56.911Z,17.40
2022-10-31T14:31:37.499Z,17.30
2022-10-31T14:34:19.413Z,17.20
2022-10-31T14:37:13.957Z,17.20
2022-10-31T14:40:01.220Z,17.20
2022-10-31T14:42:57.137Z,17.20
2022-10-31T14:45:50.589Z,17.20
2022-10-31T14:48:35.109Z,17.90
2022-10-31T14:51:10.657Z,18.30
2022-10-31T14:53:49.530Z,18.30
2022-10-31T14:56:31.392Z,18.10
2022-10-31T14:59:03.595Z,17.90
2022-10-31T15:01:33.617Z,17.70
2022-10-31T15:04:25.164Z,17.50
2022-10-31T15:07:24.432Z,17.30
2022-10-31T15:10:03.665Z,17.00
2022-10-31T15:12:38.998Z,16.80
2022-10-31T15:15:16.260Z,16.70
2022-10-31T15:17:46.660Z,16.60
2022-10-31T15:20:20.274Z,16.40
2022-10-31T15:22:47.544Z,16.30
2022-10-31T15:25:22.743Z,16.20
2022-10-31T15:27:50.868Z,16.10
2022-10-31T15:30:21.541Z,16.00
2022-10-31T15:32:57.407Z,15.90
2022-10-31T15:35:31.692Z,15.80
2022-10-31T15:38:00.218Z,15.80
2022-10-31T15:40:31.631Z,15.60
2022-10-31T15:43:05.498Z,15.40
2022-10-31T15:45:32.686Z,15.30
2022-10-31T15:48:17.613Z,15.20
2022-10-31T15:50:56.893Z,15.10
2022-10-31T15:53:30.055Z,15.00
2022-10-31T15:56:03.551Z,14.90
2022-10-31T15:58:31.276Z,14.80
2022-10-31T16:01:06.654Z,14.80
2022-10-31T16:03:35.099Z,14.70
2022-10-31T16:06:06.027Z,14.50
2022-10-31T16:08:37.057Z,14.30
2022-10-31T16:11:24.452Z,14.10
2022-10-31T16:13:58.877Z,14.00
2022-10-31T16:16:41.489Z,14.00
2022-10-31T16:19:19.047Z,13.90
2022-10-31T16:21:46.713Z,13.80
2022-10-31T16:24:20.569Z,13.70
2022-10-31T16:27:05.744Z,13.60
2022-10-31T16:29:45.211Z,13.50
2022-10-31T16:32:36.237Z,13.40
2022-10-31T16:35:09.045Z,13.40
2022-10-31T16:37:39.121Z,13.40
2022-10-31T16:40:06.385Z,13.40
2022-10-31T16:42:33.382Z,13.40
2022-10-31T16:45:01.081Z,13.30
2022-10-31T16:47:28.713Z,13.30
2022-10-31T16:49:55.578Z,13.30
2022-10-31T16:52:22.287Z,13.30
2022-10-31T16:54:49.500Z,13.30
2022-10-31T16:57:20.703Z,13.30
2022-10-31T16:59:54.757Z,13.20
2022-10-31T17:02:22.129Z,13.20
2022-10-31T17:04:50.907Z,13.20
2022-10-31T17:07:20.749Z,13.00
2022-10-31T17:09:47.512Z,12.80
2022-10-31T17:12:19.521Z,12.70
2022-10-31T17:14:51.534Z,12.50
2022-10-31T17:17:18.528Z,12.30
2022-10-31T17:19:45.319Z,12.30
2022-10-31T17:22:13.648Z,12.10
2022-10-31T17:24:40.541Z,12.10
2022-10-31T17:27:07.602Z,12.20
2022-10-31T17:29:35.348Z,12.30
2022-10-31T17:32:03.779Z,12.30
2022-10-31T17:34:30.901Z,12.20
2022-10-31T17:36:57.773Z,12.10
2022-10-31T17:39:24.634Z,12.10
2022-10-31T17:41:52.410Z,12.10
2022-10-31T17:44:19.821Z,12.20
2022-10-31T17:46:46.527Z,12.20
2022-10-31T17:49:13.422Z,12.00
2022-10-31T17:51:40.193Z,11.80
2022-10-31T17:54:08.761Z,11.50
2022-10-31T17:56:35.502Z,11.50
2022-10-31T17:59:02.574Z,11.50
2022-10-31T18:01:30.232Z,11.40
2022-10-31T18:03:57.639Z,11.40
2022-10-31T18:06:24.380Z,11.50
2022-10-31T18:08:51.200Z,11.50
2022-10-31T18:11:20.793Z,11.40
2022-10-31T18:13:47.980Z,11.30
2022-10-31T18:16:19.096Z,11.30
2022-10-31T18:18:53.724Z,11.30
2022-10-31T18:21:21.094Z,11.30
2022-10-31T18:23:48.237Z,11.30
2022-10-31T18:26:15.016Z,11.20
2022-10-31T18:28:41.836Z,11.20
2022-10-31T18:31:08.611Z,11.20
2022-10-31T18:33:37.725Z,11.10
2022-10-31T18:36:06.401Z,11.10
2022-10-31T18:38:34.217Z,10.80
2022-10-31T18:41:00.937Z,10.70
2022-10-31T18:43:27.782Z,10.50
2022-10-31T18:45:57.961Z,10.30
2022-10-31T18:48:25.076Z,10.10
2022-10-31T18:50:51.862Z,10.10
2022-10-31T18:53:18.732Z,10.10
2022-10-31T18:55:49.098Z,9.90
2022-10-31T18:58:17.716Z,9.90
2022-10-31T19:00:45.775Z,9.90
2022-10-31T19:03:13.839Z,9.90
2022-10-31T19:05:40.691Z,9.90
2022-10-31T19:08:07.597Z,9.90
2022-10-31T19:10:36.363Z,9.90
2022-10-31T19:13:03.370Z,9.90
2022-10-31T19:15:30.479Z,9.90
2022-10-31T19:17:57.686Z,9.90
2022-10-31T19:20:24.430Z,9.90
2022-10-31T19:22:51.342Z,9.90
2022-10-31T19:25:18.324Z,9.90
2022-10-31T19:27:45.179Z,9.90
2022-10-31T19:30:12.695Z,9.90
2022-10-31T19:32:39.622Z,9.80
2022-10-31T19:35:09.174Z,9.80
2022-10-31T19:37:36.892Z,9.80
2022-10-31T19:40:05.630Z,9.80
2022-10-31T19:42:33.182Z,9.70
2022-10-31T19:45:00.526Z,9.70
2022-10-31T19:47:27.907Z,9.70
2022-10-31T19:49:54.617Z,9.60
2022-10-31T19:52:21.385Z,9.50
2022-10-31T19:54:48.320Z,9.50
2022-10-31T19:57:15.008Z,9.40
2022-10-31T19:59:41.704Z,9.40
2022-10-31T20:02:19.078Z,9.40
2022-10-31T20:04:46.437Z,9.40
2022-10-31T20:07:13.741Z,9.40
2022-10-31T20:09:40.468Z,9.40
2022-10-31T20:12:07.526Z,9.40
2022-10-31T20:14:34.282Z,9.40
2022-10-31T20:17:01.026Z,9.30
2022-10-31T20:19:27.800Z,9.20
2022-10-31T20:21:54.652Z,9.20
2022-10-31T20:24:22.081Z,9.30
2022-10-31T20:26:48.872Z,9.30
2022-10-31T20:29:16.107Z,9.30
2022-10-31T20:31:44.439Z,9.30
2022-10-31T20:34:11.181Z,9.20
2022-10-31T20:36:38.471Z,9.20
2022-10-31T20:39:05.370Z,9.10
2022-10-31T20:41:32.318Z,9.00
2022-10-31T20:43:59.054Z,9.10
2022-10-31T20:46:26.844Z,9.00
2022-10-31T20:48:54.444Z,9.00
2022-10-31T20:51:24.732Z,9.10
2022-10-31T20:53:53.266Z,9.00
2022-10-31T20:56:24.655Z,9.00
2022-10-31T20:58:51.534Z,9.00
2022-10-31T21:01:24.531Z,9.00
2022-10-31T21:03:51.759Z,9.00
2022-10-31T21:06:19.689Z,9.00
2022-10-31T21:08:46.842Z,9.00
2022-10-31T21:11:16.274Z,9.10
2022-10-31T21:13:45.827Z,9.10
2022-10-31T21:16:15.382Z,9.00
2022-10-31T21:18:43.582Z,9.00
2022-10-31T21:21:16.341Z,9.00
2022-10-31T21:23:44.066Z,8.90
2022-10-31T21:26:23.247Z,8.90
2022-10-31T21:28:54.463Z,8.90
2022-10-31T21:31:21.972Z,8.90
2022-10-31T21:33:48.790Z,8.90
2022-10-31T21:36:16.437Z,8.90
2022-10-31T21:38:43.799Z,8.90
2022-10-31T21:41:15.637Z,9.00
2022-10-31T21:43:44.394Z,9.00
2022-10-31T21:46:19.428Z,8.90
2022-10-31T21:48:46.868Z,8.90
2022-10-31T21:51:31.026Z,8.80
2022-10-31T21:54:16.989Z,8.80
2022-10-31T21:56:43.950Z,8.80
2022-10-31T21:59:10.686Z,8.80
2022-10-31T22:01:38.370Z,8.80
2022-10-31T22:04:05.533Z,8.80
2022-10-31T22:06:33.044Z,8.80
2022-10-31T22:09:01.473Z,8.70
2022-10-31T22:11:28.937Z,8.80
2022-10-31T22:13:56.267Z,8.80
2022-10-31T22:16:24.819Z,8.70
2022-10-31T22:18:53.891Z,8.60
2022-10-31T22:21:25.506Z,8.50
2022-10-31T22:23:54.481Z,8.40
2022-10-31T22:26:21.434Z,8.40
2022-10-31T22:28:50.775Z,8.40
2022-10-31T22:31:19.591Z,8.40
2022-10-31T22:33:50.506Z,8.30
2022-10-31T22:36:20.363Z,8.30
2022-10-31T22:38:47.942Z,8.20
2022-10-31T22:41:20.317Z,8.20
2022-10-31T22:43:47.593Z,8.20
2022-10-31T22:46:18.303Z,8.20
2022-10-31T22:48:50.640Z,8.30
2022-10-31T22:51:23.353Z,8.30
2022-10-31T22:53:50.715Z,8.30
2022-10-31T22:56:20.476Z,8.30
2022-10-31T22:58:47.856Z,8.40
2022-10-31T23:01:19.892Z,8.40
2022-10-31T23:03:47.483Z,8.40
2022-10-31T23:06:17.137Z,8.40
2022-10-31T23:08:44.685Z,8.40
2022-10-31T23:11:18.531Z,8.40
2022-10-31T23:14:05.921Z,8.20
2022-10-31T23:16:33.539Z,8.10
2022-10-31T23:19:00.751Z,8.10
2022-10-31T23:21:46.066Z,8.10
2022-10-31T23:24:13.057Z,8.10
2022-10-31T23:26:58.950Z,8.10
2022-10-31T23:29:25.712Z,8.10
2022-10-31T23:31:54.582Z,8.20
2022-10-31T23:34:22.185Z,8.20
2022-10-31T23:36:49.189Z,8.20
2022-10-31T23:39:18.794Z,8.10
2022-10-31T23:41:48.035Z,8.10
2022-10-31T23:44:14.816Z,8.00
2022-10-31T23:46:41.617Z,8.00
2022-10-31T23:49:08.561Z,8.20
2022-10-31T23:51:35.296Z,8.20
2022-10-31T23:54:02.070Z,8.20
2022-10-31T23:56:29.171Z,8.10
2022-10-31T23:58:55.922Z,8.10
